sensor_id;sensor_type;location;lat;lon;timestamp;temperature;humidity
84294;DHT22;74463;51.182;3.210;2024-03-07T00:00:57;5.90;86.70
84294;DHT22;74463;51.182;3.210;2024-03-07T00:03:26;5.90;86.40
84294;DHT22;74463;51.182;3.210;2024-03-07T00:09:15;5.80;85.80
84294;DHT22;74463;51.182;3.210;2024-03-07T00:11:43;5.60;85.50
84294;DHT22;74463;51.182;3.210;2024-03-07T00:14:12;5.50;86.00
84294;DHT22;74463;51.182;3.210;2024-03-07T00:16:39;5.60;86.50
84294;DHT22;74463;51.182;3.210;2024-03-07T00:19:07;5.40;86.60
84294;DHT22;74463;51.182;3.210;2024-03-07T00:21:34;5.40;87.50
84294;DHT22;74463;51.182;3.210;2024-03-07T00:24:02;5.40;86.30
84294;DHT22;74463;51.182;3.210;2024-03-07T00:26:31;5.40;86.20
84294;DHT22;74463;51.182;3.210;2024-03-07T00:28:58;5.30;86.20
84294;DHT22;74463;51.182;3.210;2024-03-07T00:31:27;5.30;86.10
84294;DHT22;74463;51.182;3.210;2024-03-07T00:33:56;5.30;85.70
84294;DHT22;74463;51.182;3.210;2024-03-07T00:36:23;5.20;85.60
84294;DHT22;74463;51.182;3.210;2024-03-07T00:38:52;5.20;86.00
84294;DHT22;74463;51.182;3.210;2024-03-07T00:41:19;5.20;86.00
84294;DHT22;74463;51.182;3.210;2024-03-07T00:43:47;5.10;85.70
84294;DHT22;74463;51.182;3.210;2024-03-07T00:46:16;5.10;85.80
84294;DHT22;74463;51.182;3.210;2024-03-07T00:48:45;5.20;85.90
84294;DHT22;74463;51.182;3.210;2024-03-07T00:51:13;5.10;86.00
84294;DHT22;74463;51.182;3.210;2024-03-07T00:53:40;5.10;86.10
84294;DHT22;74463;51.182;3.210;2024-03-07T00:56:08;5.10;86.20
84294;DHT22;74463;51.182;3.210;2024-03-07T00:58:35;5.00;86.60
84294;DHT22;74463;51.182;3.210;2024-03-07T01:01:03;5.00;86.30
84294;DHT22;74463;51.182;3.210;2024-03-07T01:03:30;5.00;86.00
84294;DHT22;74463;51.182;3.210;2024-03-07T01:05:59;5.00;86.30
84294;DHT22;74463;51.182;3.210;2024-03-07T01:08:27;4.90;86.60
84294;DHT22;74463;51.182;3.210;2024-03-07T01:10:54;4.90;86.90
84294;DHT22;74463;51.182;3.210;2024-03-07T01:13:22;5.00;87.20
84294;DHT22;74463;51.182;3.210;2024-03-07T01:15:50;4.90;86.80
84294;DHT22;74463;51.182;3.210;2024-03-07T01:18:17;4.80;86.80
84294;DHT22;74463;51.182;3.210;2024-03-07T01:20:45;4.90;87.20
84294;DHT22;74463;51.182;3.210;2024-03-07T01:23:14;4.90;86.70
84294;DHT22;74463;51.182;3.210;2024-03-07T01:25:42;4.80;86.80
84294;DHT22;74463;51.182;3.210;2024-03-07T01:28:09;4.90;87.10
84294;DHT22;74463;51.182;3.210;2024-03-07T01:30:39;5.00;87.30
84294;DHT22;74463;51.182;3.210;2024-03-07T01:33:07;5.00;87.00
84294;DHT22;74463;51.182;3.210;2024-03-07T01:35:35;5.00;86.90
84294;DHT22;74463;51.182;3.210;2024-03-07T01:38:02;4.90;87.10
84294;DHT22;74463;51.182;3.210;2024-03-07T01:40:31;4.90;87.20
84294;DHT22;74463;51.182;3.210;2024-03-07T01:42:59;5.00;87.00
84294;DHT22;74463;51.182;3.210;2024-03-07T01:45:28;4.90;86.70
84294;DHT22;74463;51.182;3.210;2024-03-07T01:47:55;4.90;87.00
84294;DHT22;74463;51.182;3.210;2024-03-07T01:50:23;4.90;87.10
84294;DHT22;74463;51.182;3.210;2024-03-07T01:52:51;4.90;86.70
84294;DHT22;74463;51.182;3.210;2024-03-07T01:55:21;4.90;86.70
84294;DHT22;74463;51.182;3.210;2024-03-07T01:57:51;4.80;87.10
84294;DHT22;74463;51.182;3.210;2024-03-07T02:00:18;4.80;87.10
84294;DHT22;74463;51.182;3.210;2024-03-07T02:02:46;4.80;87.10
84294;DHT22;74463;51.182;3.210;2024-03-07T02:05:13;4.90;87.60
84294;DHT22;74463;51.182;3.210;2024-03-07T02:07:43;4.90;87.30
84294;DHT22;74463;51.182;3.210;2024-03-07T02:10:10;4.90;87.40
84294;DHT22;74463;51.182;3.210;2024-03-07T02:12:39;4.90;87.20
84294;DHT22;74463;51.182;3.210;2024-03-07T02:15:09;4.90;87.40
84294;DHT22;74463;51.182;3.210;2024-03-07T02:17:36;4.90;87.20
84294;DHT22;74463;51.182;3.210;2024-03-07T02:20:05;4.90;87.30
84294;DHT22;74463;51.182;3.210;2024-03-07T02:22:35;5.10;87.10
84294;DHT22;74463;51.182;3.210;2024-03-07T02:25:03;5.00;87.20
84294;DHT22;74463;51.182;3.210;2024-03-07T02:27:31;5.10;87.40
84294;DHT22;74463;51.182;3.210;2024-03-07T02:29:58;5.10;87.80
84294;DHT22;74463;51.182;3.210;2024-03-07T02:32:27;5.20;87.80
84294;DHT22;74463;51.182;3.210;2024-03-07T02:34:54;5.10;87.80
84294;DHT22;74463;51.182;3.210;2024-03-07T02:37:22;5.20;89.00
84294;DHT22;74463;51.182;3.210;2024-03-07T02:39:51;5.20;87.80
84294;DHT22;74463;51.182;3.210;2024-03-07T02:42:19;5.30;87.70
84294;DHT22;74463;51.182;3.210;2024-03-07T02:44:47;5.30;87.60
84294;DHT22;74463;51.182;3.210;2024-03-07T02:47:14;5.30;87.90
84294;DHT22;74463;51.182;3.210;2024-03-07T02:49:43;5.30;87.70
84294;DHT22;74463;51.182;3.210;2024-03-07T02:52:11;5.30;87.50
84294;DHT22;74463;51.182;3.210;2024-03-07T02:54:38;5.20;87.70
84294;DHT22;74463;51.182;3.210;2024-03-07T02:57:07;5.20;87.40
84294;DHT22;74463;51.182;3.210;2024-03-07T02:59:37;5.10;87.30
84294;DHT22;74463;51.182;3.210;2024-03-07T03:02:05;5.00;87.20
84294;DHT22;74463;51.182;3.210;2024-03-07T03:04:33;5.00;87.00
84294;DHT22;74463;51.182;3.210;2024-03-07T03:07:00;5.00;87.10
84294;DHT22;74463;51.182;3.210;2024-03-07T03:09:28;5.00;87.20
84294;DHT22;74463;51.182;3.210;2024-03-07T03:11:55;5.00;87.70
84294;DHT22;74463;51.182;3.210;2024-03-07T03:14:24;5.00;87.70
84294;DHT22;74463;51.182;3.210;2024-03-07T03:16:52;5.00;87.70
84294;DHT22;74463;51.182;3.210;2024-03-07T03:19:19;4.90;87.40
84294;DHT22;74463;51.182;3.210;2024-03-07T03:21:48;5.00;87.60
84294;DHT22;74463;51.182;3.210;2024-03-07T03:24:16;5.00;87.60
84294;DHT22;74463;51.182;3.210;2024-03-07T03:26:43;5.10;88.10
84294;DHT22;74463;51.182;3.210;2024-03-07T03:29:12;5.10;87.80
84294;DHT22;74463;51.182;3.210;2024-03-07T03:31:41;5.10;87.80
84294;DHT22;74463;51.182;3.210;2024-03-07T03:34:09;5.20;87.70
84294;DHT22;74463;51.182;3.210;2024-03-07T03:36:37;5.20;87.90
84294;DHT22;74463;51.182;3.210;2024-03-07T03:39:05;5.20;88.20
84294;DHT22;74463;51.182;3.210;2024-03-07T03:41:33;5.10;88.20
84294;DHT22;74463;51.182;3.210;2024-03-07T03:44:01;5.10;88.50
84294;DHT22;74463;51.182;3.210;2024-03-07T03:46:29;5.10;88.40
84294;DHT22;74463;51.182;3.210;2024-03-07T03:48:58;5.10;88.80
84294;DHT22;74463;51.182;3.210;2024-03-07T03:51:26;5.10;88.90
84294;DHT22;74463;51.182;3.210;2024-03-07T03:53:54;5.10;88.90
84294;DHT22;74463;51.182;3.210;2024-03-07T03:56:21;5.10;88.70
84294;DHT22;74463;51.182;3.210;2024-03-07T03:58:49;5.10;88.50
84294;DHT22;74463;51.182;3.210;2024-03-07T04:01:16;5.20;88.00
84294;DHT22;74463;51.182;3.210;2024-03-07T04:03:44;5.30;87.90
84294;DHT22;74463;51.182;3.210;2024-03-07T04:06:14;5.20;88.20
84294;DHT22;74463;51.182;3.210;2024-03-07T04:08:41;5.10;88.10
84294;DHT22;74463;51.182;3.210;2024-03-07T04:11:09;5.10;88.40
84294;DHT22;74463;51.182;3.210;2024-03-07T04:13:37;5.20;88.50
84294;DHT22;74463;51.182;3.210;2024-03-07T04:16:04;5.20;88.50
84294;DHT22;74463;51.182;3.210;2024-03-07T04:18:32;5.20;88.70
84294;DHT22;74463;51.182;3.210;2024-03-07T04:21:00;5.30;88.70
84294;DHT22;74463;51.182;3.210;2024-03-07T04:23:29;5.30;88.80
84294;DHT22;74463;51.182;3.210;2024-03-07T04:25:56;5.30;89.00
84294;DHT22;74463;51.182;3.210;2024-03-07T04:28:24;5.30;88.80
84294;DHT22;74463;51.182;3.210;2024-03-07T04:30:52;5.40;88.80
84294;DHT22;74463;51.182;3.210;2024-03-07T04:33:20;5.30;88.90
84294;DHT22;74463;51.182;3.210;2024-03-07T04:35:47;5.30;88.90
84294;DHT22;74463;51.182;3.210;2024-03-07T04:38:15;5.40;89.20
84294;DHT22;74463;51.182;3.210;2024-03-07T04:40:44;5.40;88.90
84294;DHT22;74463;51.182;3.210;2024-03-07T04:43:12;5.30;89.30
84294;DHT22;74463;51.182;3.210;2024-03-07T04:45:41;5.40;89.30
84294;DHT22;74463;51.182;3.210;2024-03-07T04:48:09;5.50;89.10
84294;DHT22;74463;51.182;3.210;2024-03-07T04:50:36;5.40;89.30
84294;DHT22;74463;51.182;3.210;2024-03-07T04:53:04;5.40;89.90
84294;DHT22;74463;51.182;3.210;2024-03-07T04:55:32;5.50;89.80
84294;DHT22;74463;51.182;3.210;2024-03-07T04:58:01;5.40;89.20
84294;DHT22;74463;51.182;3.210;2024-03-07T05:00:29;5.40;89.50
84294;DHT22;74463;51.182;3.210;2024-03-07T05:02:57;5.40;90.10
84294;DHT22;74463;51.182;3.210;2024-03-07T05:05:24;5.40;90.00
84294;DHT22;74463;51.182;3.210;2024-03-07T05:07:52;5.40;90.00
84294;DHT22;74463;51.182;3.210;2024-03-07T05:10:21;5.40;90.30
84294;DHT22;74463;51.182;3.210;2024-03-07T05:12:48;5.40;90.30
84294;DHT22;74463;51.182;3.210;2024-03-07T05:15:18;5.50;90.00
84294;DHT22;74463;51.182;3.210;2024-03-07T05:17:45;5.50;90.10
84294;DHT22;74463;51.182;3.210;2024-03-07T05:20:13;5.50;90.20
84294;DHT22;74463;51.182;3.210;2024-03-07T05:22:41;5.50;90.00
84294;DHT22;74463;51.182;3.210;2024-03-07T05:25:13;5.50;90.00
84294;DHT22;74463;51.182;3.210;2024-03-07T05:27:42;5.50;90.00
84294;DHT22;74463;51.182;3.210;2024-03-07T05:30:11;5.50;90.00
84294;DHT22;74463;51.182;3.210;2024-03-07T05:32:41;5.40;90.00
84294;DHT22;74463;51.182;3.210;2024-03-07T05:35:08;5.40;90.20
84294;DHT22;74463;51.182;3.210;2024-03-07T05:37:37;5.50;89.90
84294;DHT22;74463;51.182;3.210;2024-03-07T05:40:08;5.50;89.40
84294;DHT22;74463;51.182;3.210;2024-03-07T05:42:36;5.40;89.50
84294;DHT22;74463;51.182;3.210;2024-03-07T05:45:04;5.50;89.60
84294;DHT22;74463;51.182;3.210;2024-03-07T05:47:33;5.50;90.00
84294;DHT22;74463;51.182;3.210;2024-03-07T05:50:03;5.40;90.30
84294;DHT22;74463;51.182;3.210;2024-03-07T05:52:33;5.30;90.50
84294;DHT22;74463;51.182;3.210;2024-03-07T05:55:01;5.40;90.50
84294;DHT22;74463;51.182;3.210;2024-03-07T05:57:28;5.50;90.40
84294;DHT22;74463;51.182;3.210;2024-03-07T05:59:56;5.50;90.50
84294;DHT22;74463;51.182;3.210;2024-03-07T06:02:23;5.50;90.60
84294;DHT22;74463;51.182;3.210;2024-03-07T06:04:51;5.70;90.50
84294;DHT22;74463;51.182;3.210;2024-03-07T06:07:20;5.60;90.40
84294;DHT22;74463;51.182;3.210;2024-03-07T06:09:48;5.70;90.30
84294;DHT22;74463;51.182;3.210;2024-03-07T06:12:16;5.70;90.20
84294;DHT22;74463;51.182;3.210;2024-03-07T06:14:43;5.70;90.40
84294;DHT22;74463;51.182;3.210;2024-03-07T06:17:11;5.70;90.60
84294;DHT22;74463;51.182;3.210;2024-03-07T06:19:38;5.60;90.90
84294;DHT22;74463;51.182;3.210;2024-03-07T06:22:06;5.70;90.80
84294;DHT22;74463;51.182;3.210;2024-03-07T06:24:36;5.70;90.50
84294;DHT22;74463;51.182;3.210;2024-03-07T06:27:06;5.70;90.80
84294;DHT22;74463;51.182;3.210;2024-03-07T06:29:42;5.70;90.70
84294;DHT22;74463;51.182;3.210;2024-03-07T06:32:09;5.70;90.80
84294;DHT22;74463;51.182;3.210;2024-03-07T06:34:37;5.90;90.60
84294;DHT22;74463;51.182;3.210;2024-03-07T06:37:05;5.90;90.50
84294;DHT22;74463;51.182;3.210;2024-03-07T06:39:35;5.90;90.30
84294;DHT22;74463;51.182;3.210;2024-03-07T06:42:03;5.90;90.30
84294;DHT22;74463;51.182;3.210;2024-03-07T06:44:31;5.90;90.40
84294;DHT22;74463;51.182;3.210;2024-03-07T06:46:59;6.00;90.40
84294;DHT22;74463;51.182;3.210;2024-03-07T06:49:26;6.00;90.30
84294;DHT22;74463;51.182;3.210;2024-03-07T06:51:54;6.00;90.50
84294;DHT22;74463;51.182;3.210;2024-03-07T06:54:22;6.00;90.40
84294;DHT22;74463;51.182;3.210;2024-03-07T06:56:51;6.10;90.30
84294;DHT22;74463;51.182;3.210;2024-03-07T06:59:18;6.00;90.40
84294;DHT22;74463;51.182;3.210;2024-03-07T07:01:46;6.20;90.50
84294;DHT22;74463;51.182;3.210;2024-03-07T07:04:14;6.20;90.20
84294;DHT22;74463;51.182;3.210;2024-03-07T07:06:42;6.10;90.20
84294;DHT22;74463;51.182;3.210;2024-03-07T07:09:09;6.10;90.30
84294;DHT22;74463;51.182;3.210;2024-03-07T07:11:37;6.00;90.50
84294;DHT22;74463;51.182;3.210;2024-03-07T07:14:06;6.10;90.60
84294;DHT22;74463;51.182;3.210;2024-03-07T07:16:33;6.30;90.50
84294;DHT22;74463;51.182;3.210;2024-03-07T07:19:01;6.30;90.30
84294;DHT22;74463;51.182;3.210;2024-03-07T07:21:29;6.30;90.20
84294;DHT22;74463;51.182;3.210;2024-03-07T07:23:57;6.40;89.70
84294;DHT22;74463;51.182;3.210;2024-03-07T07:26:24;6.50;89.60
84294;DHT22;74463;51.182;3.210;2024-03-07T07:28:52;6.40;90.00
84294;DHT22;74463;51.182;3.210;2024-03-07T07:31:22;6.50;90.00
84294;DHT22;74463;51.182;3.210;2024-03-07T07:33:50;6.50;89.70
84294;DHT22;74463;51.182;3.210;2024-03-07T07:36:17;6.60;89.80
84294;DHT22;74463;51.182;3.210;2024-03-07T07:38:45;6.70;89.20
84294;DHT22;74463;51.182;3.210;2024-03-07T07:41:13;6.70;89.50
84294;DHT22;74463;51.182;3.210;2024-03-07T07:43:40;6.60;89.80
84294;DHT22;74463;51.182;3.210;2024-03-07T07:46:08;6.80;89.80
84294;DHT22;74463;51.182;3.210;2024-03-07T07:48:37;6.80;89.00
84294;DHT22;74463;51.182;3.210;2024-03-07T07:51:05;6.80;89.60
84294;DHT22;74463;51.182;3.210;2024-03-07T07:53:33;6.80;90.00
84294;DHT22;74463;51.182;3.210;2024-03-07T07:56:01;6.80;90.00
84294;DHT22;74463;51.182;3.210;2024-03-07T07:58:29;6.90;90.00
84294;DHT22;74463;51.182;3.210;2024-03-07T08:00:56;7.00;89.60
84294;DHT22;74463;51.182;3.210;2024-03-07T08:03:24;6.90;89.40
84294;DHT22;74463;51.182;3.210;2024-03-07T08:05:53;6.90;89.60
84294;DHT22;74463;51.182;3.210;2024-03-07T08:08:21;7.00;89.70
84294;DHT22;74463;51.182;3.210;2024-03-07T08:10:49;6.90;89.60
84294;DHT22;74463;51.182;3.210;2024-03-07T08:13:16;7.00;89.80
84294;DHT22;74463;51.182;3.210;2024-03-07T08:15:44;7.20;89.30
84294;DHT22;74463;51.182;3.210;2024-03-07T08:18:12;7.30;88.90
84294;DHT22;74463;51.182;3.210;2024-03-07T08:20:39;7.30;88.80
84294;DHT22;74463;51.182;3.210;2024-03-07T08:23:10;7.30;88.50
84294;DHT22;74463;51.182;3.210;2024-03-07T08:25:39;7.40;88.40
84294;DHT22;74463;51.182;3.210;2024-03-07T08:28:07;7.50;88.60
84294;DHT22;74463;51.182;3.210;2024-03-07T08:30:35;7.60;87.80
84294;DHT22;74463;51.182;3.210;2024-03-07T08:33:03;7.70;87.70
84294;DHT22;74463;51.182;3.210;2024-03-07T08:35:31;7.70;87.50
84294;DHT22;74463;51.182;3.210;2024-03-07T08:37:58;7.80;87.80
84294;DHT22;74463;51.182;3.210;2024-03-07T08:40:29;7.80;87.90
84294;DHT22;74463;51.182;3.210;2024-03-07T08:42:59;7.80;87.60
84294;DHT22;74463;51.182;3.210;2024-03-07T08:45:27;7.90;86.70
84294;DHT22;74463;51.182;3.210;2024-03-07T08:47:56;8.00;86.70
84294;DHT22;74463;51.182;3.210;2024-03-07T08:50:24;8.10;85.70
84294;DHT22;74463;51.182;3.210;2024-03-07T08:52:52;8.20;85.70
84294;DHT22;74463;51.182;3.210;2024-03-07T08:55:20;8.20;85.40
84294;DHT22;74463;51.182;3.210;2024-03-07T08:57:49;8.30;85.20
84294;DHT22;74463;51.182;3.210;2024-03-07T09:00:18;8.40;84.60
84294;DHT22;74463;51.182;3.210;2024-03-07T09:02:50;8.50;84.80
84294;DHT22;74463;51.182;3.210;2024-03-07T09:05:19;8.50;84.80
84294;DHT22;74463;51.182;3.210;2024-03-07T09:07:47;8.50;84.60
84294;DHT22;74463;51.182;3.210;2024-03-07T09:10:16;8.40;84.50
84294;DHT22;74463;51.182;3.210;2024-03-07T09:12:44;8.50;84.50
84294;DHT22;74463;51.182;3.210;2024-03-07T09:15:13;8.60;84.90
84294;DHT22;74463;51.182;3.210;2024-03-07T09:17:43;8.80;84.30
84294;DHT22;74463;51.182;3.210;2024-03-07T09:20:11;8.80;83.80
84294;DHT22;74463;51.182;3.210;2024-03-07T09:22:41;8.80;83.20
84294;DHT22;74463;51.182;3.210;2024-03-07T09:25:09;9.00;82.80
84294;DHT22;74463;51.182;3.210;2024-03-07T09:27:38;9.10;82.10
84294;DHT22;74463;51.182;3.210;2024-03-07T09:30:07;9.10;81.60
84294;DHT22;74463;51.182;3.210;2024-03-07T09:32:40;9.20;81.20
84294;DHT22;74463;51.182;3.210;2024-03-07T09:35:08;9.20;81.10
84294;DHT22;74463;51.182;3.210;2024-03-07T09:37:40;9.20;81.70
84294;DHT22;74463;51.182;3.210;2024-03-07T09:40:09;9.30;81.70
84294;DHT22;74463;51.182;3.210;2024-03-07T09:42:42;9.40;80.90
84294;DHT22;74463;51.182;3.210;2024-03-07T09:45:13;9.60;80.10
84294;DHT22;74463;51.182;3.210;2024-03-07T09:47:45;9.60;79.80
84294;DHT22;74463;51.182;3.210;2024-03-07T09:50:15;9.70;79.50
84294;DHT22;74463;51.182;3.210;2024-03-07T09:52:48;9.90;78.90
84294;DHT22;74463;51.182;3.210;2024-03-07T09:55:16;9.90;76.70
84294;DHT22;74463;51.182;3.210;2024-03-07T09:57:46;10.00;77.20
84294;DHT22;74463;51.182;3.210;2024-03-07T10:00:17;9.90;77.00
84294;DHT22;74463;51.182;3.210;2024-03-07T10:02:54;9.90;76.90
84294;DHT22;74463;51.182;3.210;2024-03-07T10:05:27;9.90;76.60
84294;DHT22;74463;51.182;3.210;2024-03-07T10:07:55;10.00;76.10
84294;DHT22;74463;51.182;3.210;2024-03-07T10:10:23;10.20;73.60
84294;DHT22;74463;51.182;3.210;2024-03-07T10:12:52;10.30;73.00
84294;DHT22;74463;51.182;3.210;2024-03-07T10:15:20;10.50;72.70
84294;DHT22;74463;51.182;3.210;2024-03-07T10:17:50;10.60;72.80
84294;DHT22;74463;51.182;3.210;2024-03-07T10:20:19;10.70;72.70
84294;DHT22;74463;51.182;3.210;2024-03-07T10:22:48;10.60;72.20
84294;DHT22;74463;51.182;3.210;2024-03-07T10:25:18;10.50;72.50
84294;DHT22;74463;51.182;3.210;2024-03-07T10:27:47;10.70;72.70
84294;DHT22;74463;51.182;3.210;2024-03-07T10:30:15;10.70;71.60
84294;DHT22;74463;51.182;3.210;2024-03-07T10:32:46;10.80;70.80
84294;DHT22;74463;51.182;3.210;2024-03-07T10:35:21;10.80;70.70
84294;DHT22;74463;51.182;3.210;2024-03-07T10:37:50;10.90;71.40
84294;DHT22;74463;51.182;3.210;2024-03-07T10:40:19;10.90;70.30
84294;DHT22;74463;51.182;3.210;2024-03-07T10:42:49;11.20;70.20
84294;DHT22;74463;51.182;3.210;2024-03-07T10:45:19;11.20;68.80
84294;DHT22;74463;51.182;3.210;2024-03-07T10:47:53;11.30;69.80
84294;DHT22;74463;51.182;3.210;2024-03-07T10:50:35;11.50;70.40
84294;DHT22;74463;51.182;3.210;2024-03-07T10:53:10;11.70;68.90
84294;DHT22;74463;51.182;3.210;2024-03-07T10:55:49;11.70;68.30
84294;DHT22;74463;51.182;3.210;2024-03-07T10:58:28;12.00;67.90
84294;DHT22;74463;51.182;3.210;2024-03-07T11:01:02;12.40;67.30
84294;DHT22;74463;51.182;3.210;2024-03-07T11:03:32;12.30;65.50
84294;DHT22;74463;51.182;3.210;2024-03-07T11:06:03;12.30;65.20
84294;DHT22;74463;51.182;3.210;2024-03-07T11:08:37;12.30;65.40
84294;DHT22;74463;51.182;3.210;2024-03-07T11:11:05;12.20;64.40
84294;DHT22;74463;51.182;3.210;2024-03-07T11:13:34;12.30;64.40
84294;DHT22;74463;51.182;3.210;2024-03-07T11:16:05;12.50;63.60
84294;DHT22;74463;51.182;3.210;2024-03-07T11:18:34;12.50;64.20
84294;DHT22;74463;51.182;3.210;2024-03-07T11:21:03;12.70;63.20
84294;DHT22;74463;51.182;3.210;2024-03-07T11:23:33;12.60;62.90
84294;DHT22;74463;51.182;3.210;2024-03-07T11:26:05;12.60;63.60
84294;DHT22;74463;51.182;3.210;2024-03-07T11:28:34;12.90;63.10
84294;DHT22;74463;51.182;3.210;2024-03-07T11:31:24;12.80;62.70
84294;DHT22;74463;51.182;3.210;2024-03-07T11:34:14;13.00;62.70
84294;DHT22;74463;51.182;3.210;2024-03-07T11:36:46;13.10;62.50
84294;DHT22;74463;51.182;3.210;2024-03-07T11:39:40;13.70;61.70
84294;DHT22;74463;51.182;3.210;2024-03-07T11:42:09;14.10;59.00
84294;DHT22;74463;51.182;3.210;2024-03-07T11:44:37;14.10;58.90
84294;DHT22;74463;51.182;3.210;2024-03-07T11:47:06;14.00;59.10
84294;DHT22;74463;51.182;3.210;2024-03-07T11:49:35;14.50;58.80
84294;DHT22;74463;51.182;3.210;2024-03-07T11:52:05;15.40;56.10
84294;DHT22;74463;51.182;3.210;2024-03-07T11:54:37;16.20;53.60
84294;DHT22;74463;51.182;3.210;2024-03-07T11:57:07;17.10;50.80
84294;DHT22;74463;51.182;3.210;2024-03-07T11:59:40;17.00;50.00
84294;DHT22;74463;51.182;3.210;2024-03-07T12:02:12;16.80;50.10
84294;DHT22;74463;51.182;3.210;2024-03-07T12:04:41;19.40;46.20
84294;DHT22;74463;51.182;3.210;2024-03-07T12:07:11;21.10;41.20
84294;DHT22;74463;51.182;3.210;2024-03-07T12:09:38;22.40;37.10
84294;DHT22;74463;51.182;3.210;2024-03-07T12:12:06;23.00;36.40
84294;DHT22;74463;51.182;3.210;2024-03-07T12:14:35;23.50;34.30
84294;DHT22;74463;51.182;3.210;2024-03-07T12:17:03;22.20;36.60
84294;DHT22;74463;51.182;3.210;2024-03-07T12:19:32;21.00;39.30
84294;DHT22;74463;51.182;3.210;2024-03-07T12:22:01;21.10;39.30
84294;DHT22;74463;51.182;3.210;2024-03-07T12:24:30;20.40;40.50
84294;DHT22;74463;51.182;3.210;2024-03-07T12:27:09;19.20;42.30
84294;DHT22;74463;51.182;3.210;2024-03-07T12:29:38;19.00;43.40
84294;DHT22;74463;51.182;3.210;2024-03-07T12:32:06;18.30;44.50
84294;DHT22;74463;51.182;3.210;2024-03-07T12:34:36;17.20;46.50
84294;DHT22;74463;51.182;3.210;2024-03-07T12:37:07;17.60;46.40
84294;DHT22;74463;51.182;3.210;2024-03-07T12:39:36;19.10;43.80
84294;DHT22;74463;51.182;3.210;2024-03-07T12:42:12;20.70;39.40
84294;DHT22;74463;51.182;3.210;2024-03-07T12:44:43;23.30;35.60
84294;DHT22;74463;51.182;3.210;2024-03-07T12:47:12;25.90;31.30
84294;DHT22;74463;51.182;3.210;2024-03-07T12:49:40;27.90;28.60
84294;DHT22;74463;51.182;3.210;2024-03-07T12:52:08;28.20;27.30
84294;DHT22;74463;51.182;3.210;2024-03-07T12:54:37;28.50;27.20
84294;DHT22;74463;51.182;3.210;2024-03-07T12:57:07;28.60;26.60
84294;DHT22;74463;51.182;3.210;2024-03-07T12:59:35;28.70;26.60
84294;DHT22;74463;51.182;3.210;2024-03-07T13:02:06;29.90;25.60
84294;DHT22;74463;51.182;3.210;2024-03-07T13:04:34;31.40;24.50
84294;DHT22;74463;51.182;3.210;2024-03-07T13:07:03;30.90;23.70
84294;DHT22;74463;51.182;3.210;2024-03-07T13:09:31;29.00;25.30
84294;DHT22;74463;51.182;3.210;2024-03-07T13:12:00;28.90;25.70
84294;DHT22;74463;51.182;3.210;2024-03-07T13:14:30;30.40;24.70
84294;DHT22;74463;51.182;3.210;2024-03-07T13:17:00;30.40;24.40
84294;DHT22;74463;51.182;3.210;2024-03-07T13:19:28;28.20;25.70
84294;DHT22;74463;51.182;3.210;2024-03-07T13:21:56;28.70;25.90
84294;DHT22;74463;51.182;3.210;2024-03-07T13:24:25;28.90;26.40
84294;DHT22;74463;51.182;3.210;2024-03-07T13:26:53;29.80;25.00
84294;DHT22;74463;51.182;3.210;2024-03-07T13:29:22;29.80;24.60
84294;DHT22;74463;51.182;3.210;2024-03-07T13:31:52;30.10;23.90
84294;DHT22;74463;51.182;3.210;2024-03-07T13:34:22;30.40;23.60
84294;DHT22;74463;51.182;3.210;2024-03-07T13:36:52;30.90;24.60
84294;DHT22;74463;51.182;3.210;2024-03-07T13:39:20;32.70;23.20
84294;DHT22;74463;51.182;3.210;2024-03-07T13:41:47;33.10;22.30
84294;DHT22;74463;51.182;3.210;2024-03-07T13:44:15;31.80;22.40
84294;DHT22;74463;51.182;3.210;2024-03-07T13:46:46;31.30;23.00
84294;DHT22;74463;51.182;3.210;2024-03-07T13:49:14;30.50;23.50
84294;DHT22;74463;51.182;3.210;2024-03-07T13:51:43;31.10;23.50
84294;DHT22;74463;51.182;3.210;2024-03-07T13:54:19;29.70;23.80
84294;DHT22;74463;51.182;3.210;2024-03-07T13:57:21;28.90;24.60
84294;DHT22;74463;51.182;3.210;2024-03-07T14:00:26;31.60;24.60
84294;DHT22;74463;51.182;3.210;2024-03-07T14:03:22;32.40;22.40
84294;DHT22;74463;51.182;3.210;2024-03-07T14:05:57;31.90;22.50
84294;DHT22;74463;51.182;3.210;2024-03-07T14:11:41;32.70;22.00
84294;DHT22;74463;51.182;3.210;2024-03-07T14:17:44;32.30;22.00
84294;DHT22;74463;51.182;3.210;2024-03-07T14:23:50;33.40;21.90
84294;DHT22;74463;51.182;3.210;2024-03-07T14:30:07;34.00;20.80
84294;DHT22;74463;51.182;3.210;2024-03-07T14:32:39;32.20;21.50
84294;DHT22;74463;51.182;3.210;2024-03-07T14:35:17;29.20;23.90
84294;DHT22;74463;51.182;3.210;2024-03-07T14:37:49;29.00;24.30
84294;DHT22;74463;51.182;3.210;2024-03-07T14:40:22;28.10;24.90
84294;DHT22;74463;51.182;3.210;2024-03-07T14:42:55;30.00;24.20
84294;DHT22;74463;51.182;3.210;2024-03-07T14:45:30;31.00;23.50
84294;DHT22;74463;51.182;3.210;2024-03-07T14:47:58;29.20;23.50
84294;DHT22;74463;51.182;3.210;2024-03-07T14:50:27;29.40;24.20
84294;DHT22;74463;51.182;3.210;2024-03-07T14:52:56;27.80;24.40
84294;DHT22;74463;51.182;3.210;2024-03-07T14:55:25;26.90;25.90
84294;DHT22;74463;51.182;3.210;2024-03-07T14:57:53;28.20;25.80
84294;DHT22;74463;51.182;3.210;2024-03-07T15:00:21;28.40;25.20
84294;DHT22;74463;51.182;3.210;2024-03-07T15:02:53;29.20;24.50
84294;DHT22;74463;51.182;3.210;2024-03-07T15:05:23;29.80;24.00
84294;DHT22;74463;51.182;3.210;2024-03-07T15:07:51;29.20;24.20
84294;DHT22;74463;51.182;3.210;2024-03-07T15:10:22;29.70;24.50
84294;DHT22;74463;51.182;3.210;2024-03-07T15:12:54;29.90;23.90
84294;DHT22;74463;51.182;3.210;2024-03-07T15:15:22;30.20;23.50
84294;DHT22;74463;51.182;3.210;2024-03-07T15:17:50;30.80;23.40
84294;DHT22;74463;51.182;3.210;2024-03-07T15:20:18;31.00;23.10
84294;DHT22;74463;51.182;3.210;2024-03-07T15:22:50;30.60;23.30
84294;DHT22;74463;51.182;3.210;2024-03-07T15:25:18;30.30;23.50
84294;DHT22;74463;51.182;3.210;2024-03-07T15:27:48;30.40;23.60
84294;DHT22;74463;51.182;3.210;2024-03-07T15:30:17;31.10;23.00
84294;DHT22;74463;51.182;3.210;2024-03-07T15:32:46;30.80;23.40
84294;DHT22;74463;51.182;3.210;2024-03-07T15:35:16;28.60;24.10
84294;DHT22;74463;51.182;3.210;2024-03-07T15:37:44;27.40;25.50
84294;DHT22;74463;51.182;3.210;2024-03-07T15:40:12;27.60;26.10
84294;DHT22;74463;51.182;3.210;2024-03-07T15:42:40;27.40;25.70
84294;DHT22;74463;51.182;3.210;2024-03-07T15:45:09;26.50;26.40
84294;DHT22;74463;51.182;3.210;2024-03-07T15:47:48;26.60;26.20
84294;DHT22;74463;51.182;3.210;2024-03-07T15:50:16;25.20;27.20
84294;DHT22;74463;51.182;3.210;2024-03-07T15:52:45;24.80;28.10
84294;DHT22;74463;51.182;3.210;2024-03-07T15:55:12;24.70;28.40
84294;DHT22;74463;51.182;3.210;2024-03-07T15:57:44;24.20;28.50
84294;DHT22;74463;51.182;3.210;2024-03-07T16:00:14;24.00;28.90
84294;DHT22;74463;51.182;3.210;2024-03-07T16:02:54;23.10;30.00
84294;DHT22;74463;51.182;3.210;2024-03-07T16:05:24;23.10;30.80
84294;DHT22;74463;51.182;3.210;2024-03-07T16:07:52;22.40;31.00
84294;DHT22;74463;51.182;3.210;2024-03-07T16:10:20;22.50;32.40